Time;durP1;ratioP1;P1;durP2;ratioP2;P2;SDS_P1;SDS_P2;PMS_P1;PMS_P2;Temp;Humidity;BMP_temperature;BMP_pressure;BME280_temperature;BME280_humidity;BME280_pressure;Samples;Min_cycle;Max_cycle;Signal;HPM_P1;HPM_P2
2021/04/23 04:00:55;;;;;;;8.67;5.27;;;1.30;96.30;;;;;;5763914;23;20501;-74
2021/04/23 04:03:21;;;;;;;8.53;5.20;;;1.30;96.30;;;;;;4930392;29;20454;-74
2021/04/23 04:05:48;;;;;;;8.17;4.50;;;1.30;96.30;;;;;;4917914;29;20463;-74
2021/04/23 04:08:14;;;;;;;19.67;5.13;;;1.30;96.30;;;;;;4918190;29;20471;-74
2021/04/23 04:10:41;;;;;;;8.63;4.53;;;1.40;96.30;;;;;;4919988;29;20437;-74
2021/04/23 04:13:07;;;;;;;11.27;5.10;;;1.40;96.30;;;;;;4936617;29;20407;-74
2021/04/23 04:15:34;;;;;;;17.80;5.80;;;1.50;96.30;;;;;;4937816;29;20778;-73
2021/04/23 04:18:00;;;;;;;12.23;5.70;;;1.50;96.30;;;;;;4936720;29;20422;-73
2021/04/23 04:20:28;;;;;;;12.07;5.90;;;1.50;96.30;;;;;;4937121;29;20420;-74
2021/04/23 04:22:54;;;;;;;17.03;5.60;;;1.50;96.30;;;;;;4936713;29;20195;-74
2021/04/23 04:25:28;;;;;;;9.50;5.20;;;1.50;96.30;;;;;;4936973;29;20416;-74
2021/04/23 04:27:54;;;;;;;10.30;5.30;;;1.50;96.30;;;;;;4921278;29;20440;-74
2021/04/23 04:30:20;;;;;;;13.00;5.10;;;1.50;96.30;;;;;;4923517;29;20425;-74
2021/04/23 04:32:46;;;;;;;7.23;5.03;;;1.60;96.30;;;;;;4925550;29;20428;-74
2021/04/23 04:35:13;;;;;;;14.60;5.50;;;1.60;96.30;;;;;;4930336;29;20412;-74
2021/04/23 04:37:38;;;;;;;12.47;4.93;;;1.60;96.30;;;;;;4924043;29;20514;-74
2021/04/23 04:40:07;;;;;;;12.43;5.80;;;1.60;96.30;;;;;;4937513;29;20509;-74
2021/04/23 04:42:32;;;;;;;10.27;5.40;;;1.60;96.30;;;;;;4938251;29;20211;-74
2021/04/23 04:45:01;;;;;;;29.57;7.57;;;1.70;96.30;;;;;;4936853;29;20443;-74
2021/04/23 04:47:30;;;;;;;12.20;6.00;;;1.60;96.30;;;;;;4935566;29;20435;-74
2021/04/23 04:49:58;;;;;;;12.90;7.20;;;1.70;96.30;;;;;;4936201;29;20514;-74
2021/04/23 04:52:23;;;;;;;15.63;5.93;;;1.70;96.30;;;;;;4936214;29;20784;-74
2021/04/23 04:54:49;;;;;;;12.70;5.53;;;1.70;96.30;;;;;;4934833;29;20510;-74
2021/04/23 04:57:15;;;;;;;9.93;5.43;;;1.80;96.30;;;;;;4936292;29;20180;-75
2021/04/23 04:59:43;;;;;;;14.10;6.00;;;1.80;96.30;;;;;;4936904;29;20171;-75
2021/04/23 05:02:09;;;;;;;12.73;6.30;;;1.80;96.30;;;;;;4936728;29;20226;-76
2021/04/23 05:04:35;;;;;;;14.70;6.37;;;1.90;96.30;;;;;;4936654;29;20954;-76
2021/04/23 05:07:00;;;;;;;9.77;5.03;;;1.90;96.30;;;;;;4937834;29;20179;-75
2021/04/23 05:09:26;;;;;;;11.33;6.73;;;2.00;96.30;;;;;;4955667;28;20233;-74
2021/04/23 05:11:51;;;;;;;10.10;6.00;;;2.00;96.30;;;;;;4940950;29;20199;-79
2021/04/23 05:14:17;;;;;;;10.63;5.70;;;2.00;96.30;;;;;;4935741;29;20648;-75
2021/04/23 05:16:42;;;;;;;15.27;6.07;;;2.00;96.30;;;;;;4936603;29;20215;-76
2021/04/23 05:19:14;;;;;;;13.57;5.93;;;2.00;96.30;;;;;;4936594;29;20186;-76
2021/04/23 05:21:39;;;;;;;22.53;5.70;;;2.10;96.30;;;;;;4936299;29;20200;-75
2021/04/23 05:24:05;;;;;;;14.20;5.73;;;2.20;96.30;;;;;;4935966;29;20969;-75
2021/04/23 05:26:30;;;;;;;19.53;5.83;;;2.20;96.30;;;;;;4935833;29;20199;-75
2021/04/23 05:28:56;;;;;;;10.77;6.30;;;2.20;96.30;;;;;;4947385;29;20178;-74
2021/04/23 05:31:22;;;;;;;15.03;6.90;;;2.20;96.30;;;;;;4944063;29;20238;-74
2021/04/23 05:33:47;;;;;;;15.23;6.97;;;2.30;96.30;;;;;;4935877;29;20184;-74
2021/04/23 05:36:12;;;;;;;13.57;7.40;;;2.30;96.30;;;;;;4935290;29;20762;-75
2021/04/23 05:38:38;;;;;;;18.00;6.40;;;2.30;96.30;;;;;;4934857;29;20235;-75
2021/04/23 05:41:04;;;;;;;12.17;5.77;;;2.30;96.30;;;;;;4935881;29;20571;-75
2021/04/23 05:43:29;;;;;;;12.57;6.90;;;2.40;96.30;;;;;;4935856;29;20195;-75
2021/04/23 05:45:55;;;;;;;22.57;7.90;;;2.40;96.30;;;;;;4935384;29;20183;-75
2021/04/23 05:48:20;;;;;;;16.67;6.73;;;2.50;96.30;;;;;;4935150;29;20184;-75
2021/04/23 05:50:47;;;;;;;16.17;6.47;;;2.50;96.30;;;;;;4935863;29;20194;-75
2021/04/23 05:53:13;;;;;;;10.67;6.73;;;2.60;96.30;;;;;;4934515;29;20190;-75
2021/04/23 05:55:39;;;;;;;15.80;6.57;;;2.70;96.30;;;;;;4935561;29;20427;-74
2021/04/23 05:58:07;;;;;;;18.03;6.53;;;2.80;96.30;;;;;;4935081;29;20180;-74
2021/04/23 06:00:35;;;;;;;15.23;6.80;;;2.80;96.30;;;;;;4935721;29;20585;-74
2021/04/23 06:03:02;;;;;;;10.40;6.57;;;2.80;96.30;;;;;;4935620;29;20451;-74
2021/04/23 06:05:28;;;;;;;14.43;6.40;;;2.80;96.30;;;;;;4934331;29;20427;-74
2021/04/23 06:08:03;;;;;;;12.83;7.57;;;2.80;96.30;;;;;;4933614;29;20506;-74
2021/04/23 06:10:29;;;;;;;12.60;6.83;;;2.80;96.30;;;;;;4935424;29;20415;-74
2021/04/23 06:12:56;;;;;;;11.50;6.93;;;2.80;96.30;;;;;;4935638;29;20863;-74
2021/04/23 06:15:23;;;;;;;9.00;6.43;;;2.80;96.30;;;;;;4934511;29;20783;-74
2021/04/23 06:17:49;;;;;;;17.07;6.33;;;2.70;96.30;;;;;;4935244;29;20412;-74
2021/04/23 06:20:20;;;;;;;10.87;6.83;;;2.70;96.30;;;;;;4935350;29;20407;-74
2021/04/23 06:22:46;;;;;;;16.07;6.50;;;2.80;96.30;;;;;;4935458;29;20450;-75
2021/04/23 06:25:14;;;;;;;11.73;6.00;;;2.90;96.30;;;;;;4935307;29;20418;-74
2021/04/23 06:27:40;;;;;;;21.43;7.37;;;2.80;96.30;;;;;;4934935;29;20761;-74
2021/04/23 06:30:09;;;;;;;13.83;6.00;;;2.90;96.30;;;;;;4922098;29;20432;-74
2021/04/23 06:32:35;;;;;;;12.30;6.10;;;3.10;96.30;;;;;;4916101;29;20443;-74
2021/04/23 06:35:01;;;;;;;13.27;7.33;;;3.10;96.30;;;;;;4932687;29;20445;-74
2021/04/23 06:37:26;;;;;;;11.00;6.43;;;3.10;96.30;;;;;;4952975;28;20182;-74
2021/04/23 06:39:52;;;;;;;7.30;4.57;;;3.10;96.30;;;;;;4954225;28;20629;-74
2021/04/23 06:42:17;;;;;;;11.00;5.53;;;3.10;96.30;;;;;;4969116;28;20430;-75
2021/04/23 06:44:43;;;;;;;9.67;5.10;;;3.10;96.30;;;;;;4954029;28;20260;-74
2021/04/23 06:47:09;;;;;;;10.60;5.17;;;3.20;96.30;;;;;;4942170;28;20644;-74
2021/04/23 06:49:34;;;;;;;11.87;6.10;;;3.10;96.30;;;;;;4939691;29;20180;-77
2021/04/23 06:52:00;;;;;;;11.03;5.10;;;3.10;96.30;;;;;;4934946;29;20447;-76
2021/04/23 06:54:25;;;;;;;10.20;5.37;;;3.10;96.30;;;;;;4933748;29;20190;-76
2021/04/23 06:56:51;;;;;;;10.73;5.93;;;3.10;96.30;;;;;;4935052;29;20582;-76
2021/04/23 06:59:17;;;;;;;7.20;4.70;;;3.00;96.30;;;;;;4933429;29;20183;-76
2021/04/23 07:01:42;;;;;;;9.17;4.97;;;3.10;96.30;;;;;;4934655;29;20258;-76
2021/04/23 07:04:08;;;;;;;11.87;6.33;;;3.20;96.30;;;;;;4935001;29;20203;-76
2021/04/23 07:06:38;;;;;;;13.20;5.47;;;3.20;96.30;;;;;;4934945;29;20178;-76
2021/04/23 07:09:04;;;;;;;11.30;5.30;;;3.30;96.30;;;;;;4933822;29;20171;-76
2021/04/23 07:11:30;;;;;;;28.33;5.67;;;3.40;96.30;;;;;;4934843;29;20491;-76
2021/04/23 07:13:55;;;;;;;9.27;4.50;;;3.30;96.30;;;;;;4934869;29;20419;-76
2021/04/23 07:16:21;;;;;;;10.63;4.13;;;3.40;96.30;;;;;;4934888;29;20187;-76
2021/04/23 07:18:46;;;;;;;9.93;4.20;;;3.50;96.30;;;;;;4934270;29;20179;-76
2021/04/23 07:21:12;;;;;;;7.97;5.20;;;3.60;96.30;;;;;;4934645;29;20206;-76
2021/04/23 07:23:37;;;;;;;8.50;4.50;;;3.60;96.30;;;;;;4934674;29;20241;-76
2021/04/23 07:26:03;;;;;;;14.23;4.73;;;3.80;96.30;;;;;;4934779;29;20175;-76
2021/04/23 07:28:28;;;;;;;10.77;4.00;;;3.90;96.30;;;;;;4934229;29;20194;-76
2021/04/23 07:30:54;;;;;;;10.53;4.87;;;4.10;96.30;;;;;;4934693;29;20195;-76
2021/04/23 07:33:19;;;;;;;10.73;5.10;;;4.20;96.30;;;;;;4934768;29;20207;-76
2021/04/23 07:35:45;;;;;;;6.70;4.47;;;4.40;96.30;;;;;;4925660;29;20256;-74
2021/04/23 07:38:11;;;;;;;7.17;3.90;;;4.50;96.30;;;;;;4915352;29;20176;-74
2021/04/23 07:40:37;;;;;;;7.20;3.90;;;4.50;96.30;;;;;;4915608;29;20443;-75
2021/04/23 07:43:03;;;;;;;10.73;4.30;;;4.70;96.30;;;;;;4932465;29;20455;-75
2021/04/23 07:45:29;;;;;;;7.23;4.60;;;4.70;96.30;;;;;;4934483;29;20411;-75
2021/04/23 07:47:56;;;;;;;12.40;5.23;;;4.70;96.30;;;;;;4934379;29;20531;-74
2021/04/23 07:50:24;;;;;;;9.50;4.30;;;4.50;96.30;;;;;;4936808;29;20423;-75
2021/04/23 07:52:51;;;;;;;11.00;5.03;;;4.50;96.30;;;;;;4937616;29;20423;-74
2021/04/23 07:55:18;;;;;;;5.00;4.50;;;4.50;96.30;;;;;;4938154;29;20852;-75
2021/04/23 07:57:43;;;;;;;10.67;5.30;;;4.50;96.30;;;;;;4937409;29;20423;-75
2021/04/23 08:00:11;;;;;;;12.13;4.80;;;4.20;96.30;;;;;;4938032;29;20926;-74
2021/04/23 08:02:37;;;;;;;10.23;4.97;;;4.30;96.30;;;;;;4936228;29;20634;-75
2021/04/23 08:05:04;;;;;;;8.00;4.50;;;4.30;96.30;;;;;;4937940;29;20411;-74
2021/04/23 08:07:29;;;;;;;9.57;5.03;;;4.40;96.30;;;;;;4937669;29;20408;-74
2021/04/23 08:09:55;;;;;;;8.00;4.50;;;4.40;96.30;;;;;;4937922;29;20408;-75
2021/04/23 08:12:20;;;;;;;4.87;4.37;;;4.50;96.30;;;;;;4936551;29;20209;-75
2021/04/23 08:14:46;;;;;;;9.40;5.40;;;4.70;96.30;;;;;;4937781;29;20179;-75
2021/04/23 08:17:11;;;;;;;12.40;6.03;;;4.90;96.30;;;;;;4936215;29;20574;-74
2021/04/23 08:19:37;;;;;;;7.83;4.80;;;4.90;96.30;;;;;;4937355;29;20196;-74
2021/04/23 08:22:03;;;;;;;6.87;5.17;;;4.90;96.30;;;;;;4937263;29;20290;-75
2021/04/23 08:24:28;;;;;;;8.33;5.53;;;4.80;96.30;;;;;;4947467;29;20206;-74
2021/04/23 08:26:54;;;;;;;13.53;6.40;;;4.80;96.30;;;;;;4956604;29;20432;-74
2021/04/23 08:29:19;;;;;;;11.40;6.13;;;4.70;96.30;;;;;;4955225;29;20182;-75
2021/04/23 08:31:45;;;;;;;9.37;5.70;;;4.60;96.30;;;;;;4956460;28;20205;-75
2021/04/23 08:34:11;;;;;;;15.47;6.07;;;4.60;96.30;;;;;;4956531;29;20635;-74
2021/04/23 08:36:38;;;;;;;13.63;6.13;;;4.70;96.30;;;;;;4956553;28;20175;-75
2021/04/23 08:39:07;;;;;;;9.90;5.80;;;4.90;96.30;;;;;;4956407;28;20422;-75
2021/04/23 08:41:33;;;;;;;8.13;5.73;;;4.70;96.30;;;;;;4956409;28;20434;-74
2021/04/23 08:43:59;;;;;;;7.90;5.70;;;4.60;96.30;;;;;;4956337;28;20450;-75
2021/04/23 08:46:26;;;;;;;12.23;5.60;;;4.50;96.30;;;;;;4956416;29;20414;-75
2021/04/23 08:48:53;;;;;;;13.63;6.07;;;4.60;96.30;;;;;;4956033;28;20221;-75
2021/04/23 08:51:21;;;;;;;10.83;5.80;;;4.90;96.30;;;;;;4955846;28;20454;-75
2021/04/23 08:53:47;;;;;;;8.00;5.20;;;5.10;96.30;;;;;;4956571;28;20759;-75
2021/04/23 08:56:12;;;;;;;10.37;4.90;;;5.20;96.30;;;;;;4956180;29;20409;-74
2021/04/23 08:58:38;;;;;;;11.90;4.87;;;5.50;96.30;;;;;;4956000;29;20182;-75
2021/04/23 09:01:03;;;;;;;8.10;4.97;;;5.40;96.30;;;;;;4955202;28;20214;-75
2021/04/23 09:03:29;;;;;;;8.40;5.53;;;5.40;96.30;;;;;;4956040;29;20226;-74
2021/04/23 09:06:11;;;;;;;10.50;5.50;;;5.40;96.30;;;;;;4956066;28;20203;-74
2021/04/23 09:08:45;;;;;;;7.57;4.57;;;5.00;96.30;;;;;;4970936;28;20591;-75
2021/04/23 09:11:16;;;;;;;9.37;5.13;;;5.00;96.30;;;;;;4956007;28;20555;-74
2021/04/23 09:14:09;;;;;;;15.73;5.27;;;4.90;96.30;;;;;;4955940;28;20903;-74
2021/04/23 09:16:44;;;;;;;16.10;4.40;;;5.00;96.30;;;;;;4952875;29;20437;-74
2021/04/23 09:19:30;;;;;;;9.43;5.03;;;5.00;96.30;;;;;;4955565;29;20410;-74
2021/04/23 09:22:03;;;;;;;5.13;3.87;;;5.20;96.30;;;;;;4955670;28;20426;-74
2021/04/23 09:24:43;;;;;;;14.73;4.53;;;5.10;96.30;;;;;;4955697;28;20465;-75
2021/04/23 09:27:15;;;;;;;17.53;4.27;;;5.10;96.30;;;;;;4955492;28;20752;-74
2021/04/23 09:29:43;;;;;;;5.87;4.30;;;5.10;96.30;;;;;;4955546;29;20498;-74
2021/04/23 09:32:16;;;;;;;6.80;4.90;;;5.20;96.30;;;;;;4955333;28;20518;-74
2021/04/23 09:34:56;;;;;;;7.83;4.53;;;5.20;96.30;;;;;;4953615;29;20981;-74
2021/04/23 09:37:24;;;;;;;16.13;4.50;;;5.30;96.30;;;;;;4955196;28;20417;-75
2021/04/23 09:39:53;;;;;;;11.27;4.13;;;5.60;96.30;;;;;;4955434;28;20411;-75
2021/04/23 09:42:20;;;;;;;9.30;3.77;;;5.70;96.30;;;;;;4955377;28;20902;-75
2021/04/23 09:44:50;;;;;;;6.00;3.17;;;5.80;96.30;;;;;;4955265;28;20541;-75
2021/04/23 09:47:23;;;;;;;5.17;3.57;;;6.00;96.30;;;;;;4955047;29;20458;-75
2021/04/23 09:49:57;;;;;;;5.93;3.37;;;6.10;96.30;;;;;;4955229;28;20755;-75
2021/04/23 09:52:25;;;;;;;12.53;3.50;;;6.20;96.30;;;;;;4955085;28;20419;-75
2021/04/23 09:54:53;;;;;;;29.37;4.53;;;6.10;96.30;;;;;;4954844;28;20414;-75
2021/04/23 09:57:21;;;;;;;5.43;2.90;;;5.80;96.30;;;;;;4953424;29;21253;-75
2021/04/23 09:59:59;;;;;;;6.00;3.57;;;5.80;96.30;;;;;;4954770;28;20415;-75
2021/04/23 10:02:27;;;;;;;3.13;2.80;;;5.90;96.30;;;;;;4955157;28;20458;-75
2021/04/23 10:04:53;;;;;;;4.83;2.73;;;6.10;96.30;;;;;;4955532;28;20450;-75
2021/04/23 10:07:23;;;;;;;7.40;3.83;;;5.90;96.30;;;;;;4954708;28;20446;-74
2021/04/23 10:10:05;;;;;;;8.33;3.37;;;6.10;96.30;;;;;;4954734;29;20497;-74
2021/04/23 10:12:42;;;;;;;11.37;2.93;;;6.00;96.30;;;;;;4953223;28;20501;-74
2021/04/23 10:15:09;;;;;;;6.03;2.87;;;6.00;96.30;;;;;;4954385;28;20398;-74
2021/04/23 10:17:36;;;;;;;4.17;3.00;;;6.10;96.30;;;;;;4954298;28;20410;-74
2021/04/23 10:20:03;;;;;;;4.83;3.50;;;6.30;96.30;;;;;;4954430;28;20426;-75
2021/04/23 10:22:29;;;;;;;12.03;3.13;;;6.10;96.30;;;;;;4969287;28;20461;-74
2021/04/23 10:24:55;;;;;;;8.57;2.80;;;6.00;96.30;;;;;;4954332;29;20962;-74
2021/04/23 10:27:21;;;;;;;5.53;2.33;;;5.70;96.30;;;;;;4954206;29;20168;-74
2021/04/23 10:29:50;;;;;;;4.73;3.20;;;5.60;96.30;;;;;;4954353;28;20579;-74
2021/04/23 10:32:16;;;;;;;8.00;3.83;;;5.60;96.30;;;;;;4954292;28;20434;-74
2021/04/23 10:34:42;;;;;;;9.50;3.70;;;5.40;96.30;;;;;;4954314;28;20414;-74
2021/04/23 10:37:10;;;;;;;6.50;2.93;;;5.70;96.30;;;;;;4949761;29;20554;-75
2021/04/23 10:39:37;;;;;;;10.00;3.40;;;5.70;96.30;;;;;;4935014;29;20434;-75
2021/04/23 10:42:46;;;;;;;5.23;3.13;;;5.80;96.30;;;;;;4934897;29;20518;-75
2021/04/23 10:45:15;;;;;;;5.87;3.40;;;5.80;96.30;;;;;;4934727;29;20815;-75
2021/04/23 10:47:40;;;;;;;5.37;3.67;;;5.80;96.30;;;;;;4934548;29;20441;-74
2021/04/23 10:50:06;;;;;;;6.33;3.20;;;6.00;96.30;;;;;;4934602;29;20446;-74
2021/04/23 10:52:32;;;;;;;7.80;3.23;;;6.30;96.30;;;;;;4934691;29;20196;-74
2021/04/23 10:55:07;;;;;;;4.70;2.80;;;6.20;96.30;;;;;;4934497;29;20175;-74
2021/04/23 10:57:59;;;;;;;3.67;2.63;;;6.10;96.30;;;;;;4933578;29;20536;-75
2021/04/23 11:00:34;;;;;;;4.90;3.40;;;6.10;96.30;;;;;;4926823;29;20512;-75
2021/04/23 11:03:21;;;;;;;7.77;2.90;;;6.30;96.30;;;;;;4934719;29;20913;-75
2021/04/23 11:05:48;;;;;;;5.60;3.20;;;6.50;96.30;;;;;;4934791;29;20416;-75
2021/04/23 11:08:14;;;;;;;6.30;2.60;;;6.50;96.30;;;;;;4934530;29;20458;-75
2021/04/23 11:11:01;;;;;;;2.87;2.40;;;6.50;96.30;;;;;;4934607;29;20452;-75
2021/04/23 11:13:32;;;;;;;6.30;3.30;;;6.80;96.30;;;;;;4934754;29;20410;-75
2021/04/23 11:16:20;;;;;;;6.90;3.20;;;6.90;96.30;;;;;;4934836;29;20502;-75
2021/04/23 11:18:53;;;;;;;7.00;3.10;;;7.00;96.30;;;;;;4933107;29;20415;-75
2021/04/23 11:21:32;;;;;;;6.00;3.13;;;7.30;96.30;;;;;;4934776;29;20494;-75
2021/04/23 11:24:23;;;;;;;10.00;3.87;;;7.20;96.30;;;;;;4936196;29;20523;-75
2021/04/23 11:26:52;;;;;;;6.60;3.33;;;7.30;96.30;;;;;;4938589;29;20411;-75
2021/04/23 11:29:18;;;;;;;3.50;2.87;;;7.30;96.30;;;;;;4936988;29;20850;-75
2021/04/23 11:32:03;;;;;;;5.60;3.70;;;7.30;96.10;;;;;;4938445;29;20539;-75
2021/04/23 11:34:37;;;;;;;6.60;2.90;;;7.50;96.30;;;;;;4934928;29;20419;-75
2021/04/23 11:37:09;;;;;;;8.10;3.40;;;7.50;95.80;;;;;;4937990;29;20817;-75
2021/04/23 11:39:44;;;;;;;7.10;3.53;;;7.60;96.10;;;;;;4938359;29;20411;-75
2021/04/23 11:42:24;;;;;;;7.87;4.27;;;8.30;95.40;;;;;;4934170;29;20439;-75
2021/04/23 11:44:52;;;;;;;5.07;2.80;;;8.50;92.50;;;;;;4936499;29;20447;-75
2021/04/23 11:47:25;;;;;;;6.40;3.17;;;8.50;92.90;;;;;;4937822;29;20422;-75
2021/04/23 11:50:12;;;;;;;6.10;3.37;;;8.40;92.60;;;;;;4938100;29;20404;-75
2021/04/23 11:52:39;;;;;;;7.23;3.20;;;8.20;92.60;;;;;;4917851;29;20439;-75
2021/04/23 11:55:12;;;;;;;4.57;3.30;;;8.00;93.00;;;;;;4923526;29;20426;-76
2021/04/23 11:57:37;;;;;;;4.37;2.90;;;8.30;95.00;;;;;;4936351;29;20415;-75
2021/04/23 12:00:08;;;;;;;8.43;3.70;;;8.50;96.10;;;;;;4938105;29;20420;-76
2021/04/23 12:02:44;;;;;;;4.23;3.03;;;8.80;89.40;;;;;;4930445;29;20222;-76
2021/04/23 12:05:27;;;;;;;7.43;2.93;;;9.10;90.20;;;;;;4918951;29;20851;-76
2021/04/23 12:07:55;;;;;;;7.80;2.90;;;9.30;92.80;;;;;;4918257;29;20416;-76
2021/04/23 12:10:23;;;;;;;6.23;3.30;;;9.20;87.70;;;;;;4924147;29;20434;-75
2021/04/23 12:12:48;;;;;;;4.53;3.17;;;8.90;89.30;;;;;;4937822;29;20498;-76
2021/04/23 12:15:19;;;;;;;5.80;3.17;;;8.70;89.50;;;;;;4937445;29;20479;-75
2021/04/23 12:17:44;;;;;;;4.37;3.13;;;8.30;91.20;;;;;;4937184;29;20176;-75
2021/04/23 12:20:13;;;;;;;8.43;3.90;;;8.70;92.60;;;;;;4937680;29;20430;-76
2021/04/23 12:22:39;;;;;;;4.47;2.83;;;8.90;91.50;;;;;;4937582;29;20195;-75
2021/04/23 12:25:40;;;;;;;5.53;3.00;;;9.90;90.40;;;;;;4940607;29;20429;-75
2021/04/23 12:28:24;;;;;;;5.40;3.23;;;9.80;87.50;;;;;;4935091;29;20779;-75
2021/04/23 12:31:04;;;;;;;6.43;3.30;;;9.70;90.90;;;;;;4937481;29;20482;-75
2021/04/23 12:33:55;;;;;;;4.00;2.73;;;9.60;88.40;;;;;;4936271;29;20430;-75
2021/04/23 12:36:47;;;;;;;4.80;3.20;;;9.80;88.40;;;;;;4936303;29;20424;-76
2021/04/23 12:39:19;;;;;;;5.40;3.10;;;10.60;83.70;;;;;;4936947;29;20401;-76
2021/04/23 12:41:59;;;;;;;5.57;3.80;;;10.60;86.30;;;;;;4937171;29;20431;-75
2021/04/23 12:44:33;;;;;;;6.07;3.10;;;10.90;88.30;;;;;;4937253;29;20584;-75
2021/04/23 12:47:04;;;;;;;7.53;3.93;;;11.00;85.80;;;;;;4936693;29;20766;-76
2021/04/23 12:49:40;;;;;;;3.30;3.00;;;10.20;83.10;;;;;;4935790;29;20415;-75
2021/04/23 12:52:15;;;;;;;3.43;2.90;;;10.10;87.00;;;;;;4937076;29;20431;-75
2021/04/23 12:54:53;;;;;;;5.37;4.13;;;10.10;87.20;;;;;;4936706;29;20439;-75
2021/04/23 12:57:27;;;;;;;6.87;4.10;;;10.40;85.50;;;;;;4935881;29;20435;-75
2021/04/23 13:00:04;;;;;;;7.83;4.37;;;10.40;83.80;;;;;;4935305;29;20795;-75
2021/04/23 13:02:32;;;;;;;6.53;3.87;;;10.20;84.80;;;;;;4936528;29;20466;-75
2021/04/23 13:05:03;;;;;;;12.13;4.47;;;10.10;88.50;;;;;;4936711;29;21090;-75
2021/04/23 13:07:30;;;;;;;7.70;3.60;;;11.10;89.90;;;;;;4936371;29;20403;-75
2021/04/23 13:10:00;;;;;;;6.10;3.27;;;11.70;84.00;;;;;;4936738;29;20466;-75
2021/04/23 13:12:30;;;;;;;6.60;3.27;;;11.90;83.00;;;;;;4936513;29;20486;-75
2021/04/23 13:14:56;;;;;;;9.30;3.40;;;11.40;83.00;;;;;;4936667;29;20408;-75
2021/04/23 13:17:23;;;;;;;10.70;4.70;;;11.70;84.80;;;;;;4935867;29;20419;-75
2021/04/23 13:19:51;;;;;;;8.70;3.60;;;12.30;82.90;;;;;;4937018;29;20451;-75
2021/04/23 13:22:23;;;;;;;6.30;3.70;;;12.00;80.20;;;;;;4937537;29;20439;-75
2021/04/23 13:24:50;;;;;;;4.80;3.40;;;11.20;79.70;;;;;;4936670;29;20597;-75
2021/04/23 13:27:27;;;;;;;8.47;4.03;;;10.60;85.40;;;;;;4936427;29;20404;-75
2021/04/23 13:29:53;;;;;;;6.17;3.33;;;10.40;84.70;;;;;;4935145;29;20411;-75
2021/04/23 13:32:18;;;;;;;8.57;5.07;;;10.20;84.40;;;;;;4936034;29;20450;-75
2021/04/23 13:34:56;;;;;;;6.60;4.13;;;9.90;87.50;;;;;;4936156;29;20548;-75
2021/04/23 13:37:34;;;;;;;6.20;3.77;;;10.90;90.10;;;;;;4935588;29;20168;-77
2021/04/23 13:40:02;;;;;;;8.30;4.40;;;11.50;82.80;;;;;;4934188;29;20463;-74
2021/04/23 13:42:28;;;;;;;5.50;3.47;;;11.00;84.10;;;;;;4920237;29;20551;-74
2021/04/23 13:44:53;;;;;;;9.80;4.20;;;10.60;85.10;;;;;;4925478;29;20898;-75
2021/04/23 13:47:19;;;;;;;9.70;3.97;;;11.20;86.00;;;;;;4941115;28;20167;-75
2021/04/23 13:49:44;;;;;;;5.80;4.00;;;11.40;85.00;;;;;;4935775;29;20275;-75
2021/04/23 13:52:13;;;;;;;8.93;3.90;;;11.90;84.10;;;;;;4930580;29;20204;-74
2021/04/23 13:54:39;;;;;;;4.83;3.67;;;12.50;84.60;;;;;;4935182;29;20176;-75
2021/04/23 13:57:13;;;;;;;9.70;4.40;;;12.40;82.90;;;;;;4935532;29;20412;-75
2021/04/23 13:59:40;;;;;;;8.07;3.63;;;11.90;82.60;;;;;;4935249;29;20433;-74
2021/04/23 14:02:07;;;;;;;9.43;4.70;;;11.50;81.30;;;;;;4935402;29;20455;-75
2021/04/23 14:04:35;;;;;;;12.47;3.77;;;10.60;82.10;;;;;;4933977;29;20459;-76
2021/04/23 14:07:04;;;;;;;6.27;4.20;;;10.10;84.60;;;;;;4935075;29;20415;-76
2021/04/23 14:09:31;;;;;;;5.13;3.30;;;10.70;85.30;;;;;;4977962;23;21024;-77
2021/04/23 14:11:59;;;;;;;7.00;4.50;;;10.50;80.20;;;;;;4951200;28;20492;-76
2021/04/23 14:14:32;;;;;;;6.93;4.33;;;10.90;85.70;;;;;;4950346;29;20422;-76
2021/04/23 14:17:01;;;;;;;7.30;4.30;;;10.80;85.30;;;;;;4941177;29;20388;-76
2021/04/23 14:19:27;;;;;;;4.90;4.40;;;10.30;84.90;;;;;;4932430;29;20472;-76
2021/04/23 14:21:53;;;;;;;10.20;4.40;;;9.60;88.40;;;;;;4919167;29;20425;-76
2021/04/23 14:24:19;;;;;;;7.07;4.00;;;9.60;88.00;;;;;;4921580;29;20227;-76
2021/04/23 14:26:46;;;;;;;5.57;4.20;;;9.50;88.80;;;;;;4921178;29;20408;-76
2021/04/23 14:29:15;;;;;;;10.80;4.23;;;9.80;87.00;;;;;;4920827;29;20460;-76
2021/04/23 14:31:42;;;;;;;7.67;3.93;;;10.70;90.70;;;;;;4920736;29;20456;-76
2021/04/23 14:34:08;;;;;;;9.10;3.90;;;11.40;86.20;;;;;;4925116;29;20430;-76
2021/04/23 14:36:34;;;;;;;9.97;5.10;;;11.80;82.90;;;;;;4941662;29;20419;-76
2021/04/23 14:38:59;;;;;;;6.00;4.20;;;11.40;82.90;;;;;;4940546;29;20486;-76
2021/04/23 14:41:25;;;;;;;9.83;4.50;;;10.30;84.90;;;;;;4940903;29;20270;-76
2021/04/23 14:43:50;;;;;;;10.27;4.03;;;9.90;84.50;;;;;;4940244;29;20207;-76
2021/04/23 14:46:16;;;;;;;8.07;4.30;;;9.90;86.90;;;;;;4940357;29;20175;-76
2021/04/23 14:48:42;;;;;;;6.90;4.13;;;10.10;87.70;;;;;;4939354;29;20186;-76
2021/04/23 14:51:08;;;;;;;4.57;4.03;;;10.80;85.60;;;;;;4940440;29;20854;-76
2021/04/23 14:53:34;;;;;;;4.80;3.70;;;11.50;84.40;;;;;;4939791;29;20214;-76
2021/04/23 14:56:00;;;;;;;8.37;4.20;;;11.00;82.50;;;;;;4940977;29;20216;-76
2021/04/23 14:58:28;;;;;;;9.57;4.03;;;11.40;82.80;;;;;;4940620;29;20482;-77
2021/04/23 15:00:53;;;;;;;5.27;3.80;;;11.50;82.30;;;;;;4940107;29;20655;-76
2021/04/23 15:03:19;;;;;;;11.83;4.00;;;11.60;82.80;;;;;;4941243;29;20961;-76
2021/04/23 15:05:46;;;;;;;7.87;4.00;;;11.20;83.50;;;;;;4940138;29;20207;-76
2021/04/23 15:08:11;;;;;;;8.33;3.80;;;10.90;84.80;;;;;;4940573;29;21003;-77
2021/04/23 15:10:37;;;;;;;5.87;3.70;;;11.40;85.90;;;;;;4940919;29;20495;-76
2021/04/23 15:13:05;;;;;;;9.40;4.80;;;11.90;85.00;;;;;;4940155;29;20167;-77
2021/04/23 15:15:31;;;;;;;6.47;3.53;;;11.70;81.60;;;;;;4941285;29;20415;-76
2021/04/23 15:17:57;;;;;;;11.30;4.30;;;11.70;80.80;;;;;;4940817;29;20914;-76
2021/04/23 15:20:23;;;;;;;8.17;4.07;;;11.30;81.90;;;;;;4940549;29;20432;-76
2021/04/23 15:22:49;;;;;;;7.53;4.00;;;10.80;83.00;;;;;;4940644;29;20702;-76
2021/04/23 15:25:16;;;;;;;8.77;4.73;;;10.70;83.30;;;;;;4940304;29;20408;-76
2021/04/23 15:27:43;;;;;;;9.47;4.20;;;10.60;83.90;;;;;;4939476;29;20543;-76
2021/04/23 15:30:21;;;;;;;10.00;4.37;;;10.70;84.00;;;;;;4940348;29;20432;-76
2021/04/23 15:32:47;;;;;;;6.57;4.20;;;10.50;83.60;;;;;;4940994;29;20402;-76
2021/04/23 15:35:15;;;;;;;8.70;4.63;;;10.80;84.70;;;;;;4940252;29;20420;-76
2021/04/23 15:37:42;;;;;;;6.03;3.87;;;11.20;85.40;;;;;;4940194;29;20176;-76
2021/04/23 15:40:09;;;;;;;6.13;4.10;;;11.50;85.60;;;;;;4940097;29;20435;-76
2021/04/23 15:42:37;;;;;;;5.97;3.80;;;11.70;81.60;;;;;;4936834;29;20428;-76
2021/04/23 15:45:07;;;;;;;6.83;3.90;;;11.80;82.30;;;;;;4920985;29;20468;-76
2021/04/23 15:47:33;;;;;;;8.93;4.57;;;11.60;82.60;;;;;;4921263;29;20409;-76
2021/04/23 15:49:58;;;;;;;5.23;3.67;;;11.40;84.40;;;;;;4919995;29;20446;-76
2021/04/23 15:52:24;;;;;;;5.80;3.83;;;11.30;86.40;;;;;;4920995;29;20203;-76
2021/04/23 15:54:49;;;;;;;6.73;4.17;;;11.80;84.10;;;;;;4921011;29;20176;-76
2021/04/23 15:57:15;;;;;;;11.17;4.57;;;11.90;84.10;;;;;;4920589;29;20204;-76
2021/04/23 15:59:41;;;;;;;9.17;4.57;;;11.80;82.80;;;;;;4921413;29;20231;-76
2021/04/23 16:02:08;;;;;;;7.80;3.87;;;11.90;82.30;;;;;;4921913;29;20199;-76
2021/04/23 16:04:33;;;;;;;7.23;4.13;;;11.70;79.70;;;;;;4921107;29;20892;-76
2021/04/23 16:06:59;;;;;;;6.17;4.37;;;11.30;80.10;;;;;;4920681;29;20417;-76
2021/04/23 16:09:24;;;;;;;7.60;4.50;;;10.80;82.40;;;;;;4922186;29;20208;-76
2021/04/23 16:11:50;;;;;;;12.30;4.57;;;10.20;83.80;;;;;;4924183;29;20172;-76
2021/04/23 16:14:15;;;;;;;12.17;4.00;;;9.90;83.20;;;;;;4923946;29;20180;-76
2021/04/23 16:16:41;;;;;;;7.80;4.10;;;9.90;86.40;;;;;;4925717;29;20192;-76
2021/04/23 16:19:06;;;;;;;6.23;3.97;;;9.70;86.60;;;;;;4928624;29;20244;-76
2021/04/23 16:21:32;;;;;;;6.43;3.77;;;9.30;87.30;;;;;;4926221;29;20259;-76
2021/04/23 16:23:57;;;;;;;9.97;4.47;;;9.10;87.30;;;;;;4923280;29;20204;-76
2021/04/23 16:26:23;;;;;;;11.00;4.20;;;9.00;86.30;;;;;;4922819;29;20671;-77
2021/04/23 16:28:48;;;;;;;10.40;4.23;;;9.30;89.90;;;;;;4921683;29;20271;-75
2021/04/23 16:31:14;;;;;;;6.03;4.17;;;9.60;89.60;;;;;;4920725;29;20176;-75
2021/04/23 16:33:39;;;;;;;9.03;4.37;;;10.00;86.60;;;;;;4921167;29;20259;-77
2021/04/23 16:36:05;;;;;;;7.37;4.17;;;10.20;83.40;;;;;;4921504;29;20186;-75
2021/04/23 16:38:31;;;;;;;6.53;3.70;;;10.50;84.20;;;;;;4920666;29;20229;-75
2021/04/23 16:40:56;;;;;;;9.60;4.93;;;10.50;86.40;;;;;;4920588;29;20562;-76
2021/04/23 16:43:22;;;;;;;7.33;3.93;;;10.30;85.00;;;;;;4921402;29;20577;-74
2021/04/23 16:45:47;;;;;;;9.57;3.70;;;10.00;87.40;;;;;;4922050;29;20181;-74
2021/04/23 16:48:13;;;;;;;7.50;4.83;;;9.80;89.70;;;;;;4920067;29;20191;-75
2021/04/23 16:50:39;;;;;;;8.00;4.30;;;9.50;86.50;;;;;;4921042;29;20220;-75
2021/04/23 16:53:06;;;;;;;6.53;3.40;;;9.20;88.30;;;;;;4921987;29;20168;-75
2021/04/23 16:55:32;;;;;;;7.57;3.63;;;8.90;88.60;;;;;;4921088;29;21132;-76
2021/04/23 16:57:58;;;;;;;6.60;4.80;;;8.70;87.70;;;;;;4919293;29;20424;-75